createdAt,value
2022-11-04T00:03:08.714Z,4.70
2022-11-04T00:08:25.266Z,5.10
2022-11-04T00:13:30.051Z,4.38
2022-11-04T00:18:31.422Z,4.18
2022-11-04T00:23:51.173Z,4.93
2022-11-04T00:28:54.138Z,3.42
2022-11-04T00:33:57.624Z,3.92
2022-11-04T00:38:58.948Z,4.72
2022-11-04T00:44:04.883Z,4.75
2022-11-04T00:49:06.390Z,4.18
2022-11-04T00:54:07.733Z,4.22
2022-11-04T00:59:13.441Z,4.50
2022-11-04T01:04:16.115Z,4.55
2022-11-04T01:09:17.780Z,3.60
2022-11-04T01:14:19.496Z,3.47
2022-11-04T01:19:20.863Z,2.97
2022-11-04T01:24:22.250Z,3.40
2022-11-04T01:29:23.631Z,2.75
2022-11-04T01:34:24.963Z,2.47
2022-11-04T01:39:26.350Z,2.20
2022-11-04T01:44:42.740Z,1.65
2022-11-04T01:49:48.971Z,1.05
2022-11-04T01:54:55.263Z,1.45
2022-11-04T02:00:01.232Z,1.00
2022-11-04T02:05:02.602Z,0.98
2022-11-04T02:10:04.237Z,1.23
2022-11-04T02:15:05.952Z,0.70
2022-11-04T02:20:25.303Z,0.90
2022-11-04T02:25:57.734Z,0.95
2022-11-04T02:31:13.760Z,0.80
2022-11-04T02:36:46.254Z,0.77
2022-11-04T02:42:01.120Z,0.52
2022-11-04T02:47:07.641Z,0.77
2022-11-04T02:52:12.350Z,0.60
2022-11-04T02:57:18.173Z,0.50
2022-11-04T03:02:26.223Z,0.63
2022-11-04T03:07:31.957Z,0.45
2022-11-04T03:12:39.965Z,0.60
2022-11-04T03:18:10.502Z,0.50
2022-11-04T03:23:13.122Z,0.70
2022-11-04T03:28:43.502Z,1.02
2022-11-04T03:33:49.265Z,0.35
2022-11-04T03:38:52.510Z,0.50
2022-11-04T03:43:53.794Z,0.40
2022-11-04T03:48:55.856Z,0.30
2022-11-04T03:53:58.276Z,0.25
2022-11-04T03:58:59.554Z,0.20
2022-11-04T04:04:19.630Z,0.30
2022-11-04T04:09:32.308Z,0.40
2022-11-04T04:14:40.912Z,0.50
2022-11-04T04:19:48.157Z,0.32
2022-11-04T04:25:13.970Z,0.40
2022-11-04T04:30:17.204Z,0.35
2022-11-04T04:35:40.858Z,0.35
2022-11-04T04:41:02.240Z,0.60
2022-11-04T04:46:03.637Z,0.50
2022-11-04T04:51:05.149Z,0.73
2022-11-04T04:56:06.553Z,0.43
2022-11-04T05:01:09.035Z,0.45
2022-11-04T05:06:10.428Z,0.50
2022-11-04T05:11:12.231Z,0.75
2022-11-04T05:16:13.610Z,0.40
2022-11-04T05:21:16.033Z,0.55
2022-11-04T05:26:17.584Z,0.90
2022-11-04T05:31:18.936Z,0.60
2022-11-04T05:36:20.268Z,0.80
2022-11-04T05:41:28.445Z,0.80
2022-11-04T05:46:30.705Z,0.80
2022-11-04T05:51:33.384Z,0.50
2022-11-04T05:56:34.829Z,1.33
2022-11-04T06:01:40.742Z,1.45
2022-11-04T06:06:42.311Z,1.08
2022-11-04T06:11:43.854Z,1.13
2022-11-04T06:16:45.171Z,1.30
2022-11-04T06:21:46.638Z,1.40
2022-11-04T06:26:48.038Z,1.30
2022-11-04T06:31:49.446Z,1.40
2022-11-04T06:36:50.959Z,2.25
2022-11-04T06:41:53.046Z,1.23
2022-11-04T06:46:57.097Z,1.70
2022-11-04T06:52:00.987Z,1.95
2022-11-04T06:57:02.934Z,3.30
2022-11-04T07:02:04.908Z,2.35
2022-11-04T07:07:06.284Z,1.95
2022-11-04T07:12:07.654Z,2.00
2022-11-04T07:17:09.151Z,1.70
2022-11-04T07:22:10.656Z,1.67
2022-11-04T07:27:12.013Z,1.30
2022-11-04T07:32:13.322Z,1.40
2022-11-04T07:37:14.641Z,1.90
2022-11-04T07:42:15.986Z,1.25
2022-11-04T07:47:17.369Z,1.40
2022-11-04T07:52:18.654Z,1.20
2022-11-04T07:57:20.013Z,1.42
2022-11-04T08:02:26.559Z,1.20
2022-11-04T08:07:30.627Z,1.38
2022-11-04T08:12:32.375Z,1.50
2022-11-04T08:17:33.846Z,1.60
2022-11-04T08:22:35.594Z,1.55
2022-11-04T08:27:36.910Z,1.20
2022-11-04T08:32:38.249Z,1.27
2022-11-04T08:37:39.576Z,1.30
2022-11-04T08:42:40.934Z,1.30
2022-11-04T08:47:42.266Z,1.30
2022-11-04T08:52:43.572Z,1.65
2022-11-04T08:57:44.971Z,1.65
2022-11-04T09:02:46.684Z,1.98
2022-11-04T09:07:47.995Z,2.30
2022-11-04T09:12:49.387Z,1.40
2022-11-04T09:17:50.671Z,1.40
2022-11-04T09:22:53.086Z,1.20
2022-11-04T09:27:56.338Z,2.42
2022-11-04T09:32:58.327Z,1.80
2022-11-04T09:38:01.277Z,1.40
2022-11-04T09:43:28.699Z,1.75
2022-11-04T09:48:45.410Z,2.25
2022-11-04T09:53:49.117Z,1.60
2022-11-04T09:58:51.270Z,1.33
2022-11-04T10:04:01.653Z,1.58
2022-11-04T10:09:18.094Z,1.60
2022-11-04T10:14:55.275Z,1.00
2022-11-04T10:20:12.243Z,1.75
2022-11-04T10:25:16.902Z,1.17
2022-11-04T10:30:23.997Z,1.38
2022-11-04T10:35:31.555Z,1.27
2022-11-04T10:40:38.692Z,1.23
2022-11-04T10:46:08.186Z,0.75
2022-11-04T10:51:09.518Z,1.45
2022-11-04T10:56:20.277Z,1.10
2022-11-04T11:01:31.303Z,0.68
2022-11-04T11:06:35.614Z,0.88
2022-11-04T11:11:51.823Z,0.98
2022-11-04T11:16:53.570Z,0.90
2022-11-04T11:21:56.849Z,0.75
2022-11-04T11:27:01.280Z,0.82
2022-11-04T11:32:03.561Z,0.90
2022-11-04T11:37:19.075Z,1.15
2022-11-04T11:42:21.029Z,1.08
2022-11-04T11:47:25.117Z,0.90
2022-11-04T11:52:35.161Z,1.25
2022-11-04T12:03:24.001Z,1.20
2022-11-04T12:14:05.714Z,1.00
2022-11-04T12:19:36.428Z,0.98
2022-11-04T12:25:02.784Z,1.10
2022-11-04T12:30:10.314Z,0.80
2022-11-04T12:35:26.012Z,1.20
2022-11-04T12:46:37.303Z,1.15
2022-11-04T12:52:00.397Z,0.90
2022-11-04T12:57:13.145Z,1.55
2022-11-04T13:02:23.921Z,0.88
2022-11-04T13:07:33.520Z,0.88
2022-11-04T13:12:43.541Z,0.70
2022-11-04T13:17:47.418Z,0.73
2022-11-04T13:27:51.679Z,0.90
2022-11-04T13:33:19.232Z,1.10
2022-11-04T13:38:27.302Z,2.60
2022-11-04T13:43:38.449Z,1.42
2022-11-04T13:48:50.642Z,1.25
2022-11-04T13:53:55.656Z,1.60
2022-11-04T13:59:02.361Z,1.40
2022-11-04T14:04:12.648Z,1.20
2022-11-04T14:09:42.983Z,1.67
2022-11-04T14:14:51.148Z,1.33
2022-11-04T14:19:57.850Z,1.00
2022-11-04T14:25:02.379Z,1.20
2022-11-04T14:30:04.238Z,1.55
2022-11-04T14:35:08.724Z,1.23
2022-11-04T14:40:25.411Z,1.63
2022-11-04T14:45:38.542Z,1.38
2022-11-04T14:50:45.054Z,1.77
2022-11-04T14:55:46.366Z,6.45
2022-11-04T15:00:50.771Z,2.20
2022-11-04T15:06:00.595Z,2.78
2022-11-04T15:11:15.579Z,1.55
2022-11-04T15:16:28.532Z,1.63
2022-11-04T15:21:29.932Z,1.90
2022-11-04T15:26:33.935Z,1.60
2022-11-04T15:31:36.602Z,2.70
2022-11-04T15:36:42.563Z,1.48
2022-11-04T15:42:03.959Z,2.35
2022-11-04T15:47:17.223Z,2.50
2022-11-04T15:52:23.349Z,1.80
2022-11-04T15:57:28.926Z,2.25
2022-11-04T16:02:33.726Z,2.22
2022-11-04T16:07:38.364Z,2.10
2022-11-04T16:12:43.812Z,2.05
2022-11-04T16:17:45.304Z,2.80
2022-11-04T16:22:46.956Z,5.57
2022-11-04T16:27:49.259Z,6.72
2022-11-04T16:32:54.195Z,4.13
2022-11-04T16:37:56.549Z,2.95
2022-11-04T16:42:57.965Z,2.58
2022-11-04T16:47:59.326Z,1.98
2022-11-04T16:53:02.336Z,1.77
2022-11-04T16:58:07.261Z,1.60
2022-11-04T17:03:22.811Z,2.53
2022-11-04T17:08:25.440Z,1.80
2022-11-04T17:13:29.836Z,2.20
2022-11-04T17:18:35.231Z,1.17
2022-11-04T17:23:36.872Z,1.60
2022-11-04T17:28:38.338Z,2.00
2022-11-04T17:33:39.774Z,1.63
2022-11-04T17:38:41.098Z,2.53
2022-11-04T17:44:00.521Z,1.85
2022-11-04T17:49:07.851Z,2.35
2022-11-04T17:54:10.029Z,1.85
2022-11-04T17:59:13.331Z,1.75
2022-11-04T18:04:20.787Z,1.50
2022-11-04T18:09:22.130Z,1.40
2022-11-04T18:14:23.712Z,1.50
2022-11-04T18:19:26.487Z,1.95
2022-11-04T18:24:28.115Z,1.40
2022-11-04T18:29:29.505Z,1.65
2022-11-04T18:34:30.845Z,1.40
2022-11-04T18:39:32.191Z,1.13
2022-11-04T18:44:33.673Z,0.75
2022-11-04T18:49:35.240Z,0.63
2022-11-04T18:54:36.538Z,1.10
2022-11-04T18:59:38.347Z,1.67
2022-11-04T19:04:39.648Z,1.98
2022-11-04T19:09:46.702Z,2.30
2022-11-04T19:14:49.097Z,2.97
2022-11-04T19:19:51.304Z,2.00
2022-11-04T19:24:53.038Z,1.92
2022-11-04T19:29:54.427Z,3.00
2022-11-04T19:34:55.736Z,2.90
2022-11-04T19:39:57.040Z,3.28
2022-11-04T19:44:58.399Z,4.70
2022-11-04T19:49:59.686Z,4.07
2022-11-04T19:55:00.974Z,4.53
2022-11-04T20:00:03.501Z,4.78
2022-11-04T20:05:05.588Z,4.30
2022-11-04T20:10:07.787Z,3.05
2022-11-04T20:15:09.726Z,9.00
2022-11-04T20:20:11.142Z,5.00
2022-11-04T20:25:12.576Z,5.63
2022-11-04T20:30:13.968Z,5.95
2022-11-04T20:35:15.299Z,3.85
2022-11-04T20:40:16.824Z,4.93
2022-11-04T20:45:19.287Z,4.75
2022-11-04T20:50:20.654Z,3.75
2022-11-04T20:55:22.906Z,2.88
2022-11-04T21:00:24.211Z,3.50
2022-11-04T21:05:25.481Z,4.03
2022-11-04T21:10:26.847Z,3.30
2022-11-04T21:15:40.649Z,3.60
2022-11-04T21:20:42.990Z,2.93
2022-11-04T21:25:47.255Z,3.08
2022-11-04T21:30:51.132Z,2.72
2022-11-04T21:35:52.476Z,3.55
2022-11-04T21:41:03.406Z,3.30
2022-11-04T21:46:10.343Z,3.13
2022-11-04T21:51:14.777Z,4.00
2022-11-04T22:01:22.134Z,3.15
2022-11-04T22:06:24.973Z,3.50
2022-11-04T22:11:31.148Z,2.90
2022-11-04T22:16:34.757Z,2.92
2022-11-04T22:21:38.706Z,2.53
2022-11-04T22:26:40.383Z,1.88
2022-11-04T22:31:42.985Z,2.17
2022-11-04T22:36:44.412Z,1.80
2022-11-04T22:41:46.564Z,1.88
2022-11-04T22:47:02.289Z,1.85
2022-11-04T22:52:05.314Z,1.65
2022-11-04T22:57:06.619Z,1.70
2022-11-04T23:02:08.095Z,1.55
2022-11-04T23:07:09.500Z,1.88
2022-11-04T23:12:29.547Z,2.00
2022-11-04T23:17:49.516Z,2.47
2022-11-04T23:23:09.396Z,1.75
2022-11-04T23:28:29.438Z,1.70
2022-11-04T23:33:49.402Z,1.63
2022-11-04T23:38:50.785Z,2.13
2022-11-04T23:43:53.008Z,1.90
2022-11-04T23:49:12.906Z,1.33
2022-11-04T23:54:32.735Z,1.50
2022-11-04T23:59:52.481Z,1.88
